createdAt,value
2023-04-14T00:00:33.085Z,99224.38
2023-04-14T00:03:01.269Z,99228.50
2023-04-14T00:05:30.288Z,99222.53
2023-04-14T00:07:58.396Z,99228.50
2023-04-14T00:10:28.006Z,99226.41
2023-04-14T00:12:56.299Z,99222.81
2023-04-14T00:15:23.889Z,99224.44
2023-04-14T00:17:51.701Z,99233.59
2023-04-14T00:20:19.573Z,99227.47
2023-04-14T00:22:47.178Z,99220.72
2023-04-14T00:25:14.797Z,99221.38
2023-04-14T00:27:43.664Z,99217.91
2023-04-14T00:30:11.773Z,99210.25
2023-04-14T00:32:40.285Z,99208.53
2023-04-14T00:35:08.444Z,99215.31
2023-04-14T00:37:36.124Z,99214.44
2023-04-14T00:40:03.939Z,99215.31
2023-04-14T00:42:31.925Z,99213.69
2023-04-14T00:45:00.883Z,99218.63
2023-04-14T00:47:28.565Z,99220.28
2023-04-14T00:49:57.598Z,99219.41
2023-04-14T00:52:26.563Z,99213.31
2023-04-14T00:54:55.713Z,99211.44
2023-04-14T00:57:23.398Z,99215.69
2023-04-14T00:59:51.505Z,99213.94
2023-04-14T01:02:20.581Z,99218.75
2023-04-14T01:04:54.356Z,99209.38
2023-04-14T01:07:24.088Z,99212.63
2023-04-14T01:09:52.837Z,99215.16
2023-04-14T01:12:29.590Z,99211.63
2023-04-14T01:15:08.614Z,99218.38
2023-04-14T01:17:45.495Z,99216.53
2023-04-14T01:20:23.923Z,99216.41
2023-04-14T01:22:59.651Z,99220.47
2023-04-14T01:25:59.741Z,99228.00
2023-04-14T01:28:43.244Z,99229.63
2023-04-14T01:31:26.561Z,99222.88
2023-04-14T01:34:00.209Z,99231.25
2023-04-14T01:36:38.747Z,99230.13
2023-04-14T01:39:10.958Z,99227.47
2023-04-14T01:41:43.148Z,99228.00
2023-04-14T01:44:11.934Z,99238.06
2023-04-14T01:46:42.458Z,99240.47
2023-04-14T01:49:11.304Z,99242.91
2023-04-14T01:51:41.889Z,99246.25
2023-04-14T01:54:10.340Z,99239.41
2023-04-14T01:56:40.916Z,99245.13
2023-04-14T01:59:10.892Z,99245.13
2023-04-14T02:01:39.878Z,99254.44
2023-04-14T02:04:10.424Z,99261.13
2023-04-14T02:06:41.574Z,99261.00
2023-04-14T02:09:13.112Z,99260.06
2023-04-14T02:11:42.490Z,99264.22
2023-04-14T02:14:11.955Z,99267.56
2023-04-14T02:16:40.900Z,99269.97
2023-04-14T02:19:12.001Z,99272.50
2023-04-14T02:21:41.107Z,99267.41
2023-04-14T02:24:11.204Z,99268.16
2023-04-14T02:26:45.357Z,99270.66
2023-04-14T02:29:16.230Z,99273.09
2023-04-14T02:31:47.162Z,99276.19
2023-04-14T02:34:23.554Z,99281.22
2023-04-14T02:36:54.810Z,99284.03
2023-04-14T02:39:28.865Z,99281.44
2023-04-14T02:42:01.132Z,99285.44
2023-04-14T02:44:33.303Z,99299.13
2023-04-14T02:47:07.507Z,99284.59
2023-04-14T02:49:44.445Z,99296.38
2023-04-14T02:52:13.550Z,99295.53
2023-04-14T02:54:43.218Z,99296.34
2023-04-14T02:57:13.099Z,99287.56
2023-04-14T02:59:46.702Z,99288.28
2023-04-14T03:02:15.554Z,99295.00
2023-04-14T03:04:48.888Z,99291.53
2023-04-14T03:07:26.424Z,99290.50
2023-04-14T03:09:56.413Z,99289.50
2023-04-14T03:12:26.259Z,99286.69
2023-04-14T03:14:55.043Z,99285.00
2023-04-14T03:17:23.304Z,99289.97
2023-04-14T03:19:55.975Z,99285.59
2023-04-14T03:22:26.985Z,99285.19
2023-04-14T03:24:58.574Z,99287.50
2023-04-14T03:27:30.179Z,99288.25
2023-04-14T03:30:03.130Z,99284.63
2023-04-14T03:32:35.976Z,99287.72
2023-04-14T03:35:07.193Z,99279.28
2023-04-14T03:37:37.814Z,99290.75
2023-04-14T03:40:09.169Z,99294.09
2023-04-14T03:42:39.989Z,99287.28
2023-04-14T03:45:08.861Z,99287.84
2023-04-14T03:47:39.256Z,99286.13
2023-04-14T03:50:11.462Z,99288.56
2023-04-14T03:52:42.412Z,99290.13
2023-04-14T03:55:13.511Z,99292.78
2023-04-14T03:57:44.785Z,99285.22
2023-04-14T04:00:15.782Z,99286.72
2023-04-14T04:02:46.938Z,99286.56
2023-04-14T04:05:16.657Z,99282.13
2023-04-14T04:07:46.522Z,99283.84
2023-04-14T04:10:16.496Z,99282.13
2023-04-14T04:12:44.670Z,99287.06
2023-04-14T04:15:13.222Z,99280.31
2023-04-14T04:17:44.156Z,99282.75
2023-04-14T04:20:16.575Z,99292.00
2023-04-14T04:22:49.649Z,99291.06
2023-04-14T04:25:18.528Z,99289.44
2023-04-14T04:27:54.671Z,99289.28
2023-04-14T04:30:25.182Z,99287.44
2023-04-14T04:32:52.894Z,99294.31
2023-04-14T04:35:24.672Z,99291.84
2023-04-14T04:37:53.877Z,99294.25
2023-04-14T04:40:21.541Z,99301.06
2023-04-14T04:42:51.201Z,99306.06
2023-04-14T04:45:42.728Z,99301.84
2023-04-14T04:48:10.785Z,99300.88
2023-04-14T04:50:39.795Z,99297.50
2023-04-14T04:53:07.363Z,99305.19
2023-04-14T04:55:36.228Z,99306.13
2023-04-14T04:58:03.794Z,99304.69
2023-04-14T05:00:31.432Z,99316.84
2023-04-14T05:02:59.230Z,99317.81
2023-04-14T05:05:27.266Z,99320.34
2023-04-14T05:07:56.254Z,99317.81
2023-04-14T05:10:24.122Z,99316.16
2023-04-14T05:12:51.783Z,99313.69
2023-04-14T05:15:19.330Z,99324.00
2023-04-14T05:17:46.985Z,99321.44
2023-04-14T05:20:14.601Z,99324.00
2023-04-14T05:22:42.168Z,99323.25
2023-04-14T05:25:11.289Z,99325.72
2023-04-14T05:27:38.856Z,99326.16
2023-04-14T05:30:07.852Z,99340.44
2023-04-14T05:32:35.625Z,99331.25
2023-04-14T05:35:03.378Z,99327.09
2023-04-14T05:37:31.003Z,99330.66
2023-04-14T05:39:58.576Z,99333.41
2023-04-14T05:42:27.521Z,99335.28
2023-04-14T05:44:55.044Z,99338.13
2023-04-14T05:47:22.715Z,99336.00
2023-04-14T05:49:50.426Z,99334.81
2023-04-14T05:52:17.985Z,99337.66
2023-04-14T05:54:45.579Z,99335.25
2023-04-14T05:57:13.153Z,99337.28
2023-04-14T05:59:42.716Z,99336.91
2023-04-14T06:02:10.370Z,99339.56
2023-04-14T06:04:38.185Z,99341.44
2023-04-14T06:07:05.913Z,99340.91
2023-04-14T06:09:33.506Z,99345.25
2023-04-14T06:12:01.376Z,99344.78
2023-04-14T06:14:29.019Z,99336.78
2023-04-14T06:16:58.101Z,99340.69
2023-04-14T06:19:25.797Z,99340.84
2023-04-14T06:21:53.397Z,99341.31
2023-04-14T06:24:21.010Z,99343.25
2023-04-14T06:26:48.543Z,99339.28
2023-04-14T06:29:16.087Z,99334.56
2023-04-14T06:31:43.711Z,99339.28
2023-04-14T06:34:12.632Z,99337.91
2023-04-14T06:36:40.240Z,99334.91
2023-04-14T06:39:07.855Z,99338.69
2023-04-14T06:41:35.466Z,99340.75
2023-04-14T06:44:05.237Z,99331.81
2023-04-14T06:46:35.905Z,99336.69
2023-04-14T06:49:04.330Z,99341.28
2023-04-14T06:51:34.033Z,99333.72
2023-04-14T06:54:02.038Z,99335.63
2023-04-14T06:56:29.939Z,99328.41
2023-04-14T06:58:57.574Z,99336.09
2023-04-14T07:01:25.234Z,99342.75
2023-04-14T07:03:52.802Z,99328.03
2023-04-14T07:06:20.495Z,99323.06
2023-04-14T07:08:49.369Z,99325.47
2023-04-14T07:11:16.916Z,99324.09
2023-04-14T07:13:44.557Z,99318.47
2023-04-14T07:16:12.101Z,99322.09
2023-04-14T07:18:39.653Z,99312.09
2023-04-14T07:21:07.494Z,99314.06
2023-04-14T07:23:35.139Z,99312.63
2023-04-14T07:26:04.042Z,99312.63
2023-04-14T07:28:32.463Z,99320.59
2023-04-14T07:31:00.196Z,99312.09
2023-04-14T07:33:31.059Z,99311.38
2023-04-14T07:36:03.289Z,99311.56
2023-04-14T07:38:32.112Z,99307.38
2023-04-14T07:40:59.727Z,99315.25
2023-04-14T07:43:29.691Z,99301.53
2023-04-14T07:45:57.349Z,99302.63
2023-04-14T07:48:25.150Z,99301.16
2023-04-14T07:50:52.645Z,99306.41
2023-04-14T07:53:20.240Z,99310.72
2023-04-14T07:55:48.795Z,99305.69
2023-04-14T07:58:16.944Z,99295.31
2023-04-14T08:00:46.179Z,99302.19
2023-04-14T08:03:14.478Z,99299.72
2023-04-14T08:05:43.084Z,99307.31
2023-04-14T08:08:11.033Z,99295.44
2023-04-14T08:10:39.688Z,99304.19
2023-04-14T08:13:07.415Z,99303.44
2023-04-14T08:15:35.013Z,99301.00
2023-04-14T08:18:03.986Z,99292.44
2023-04-14T08:20:31.626Z,99295.91
2023-04-14T08:22:59.383Z,99296.19
2023-04-14T08:25:26.948Z,99286.06
2023-04-14T08:27:54.559Z,99293.28
2023-04-14T08:30:22.103Z,99295.19
2023-04-14T08:32:49.978Z,99298.66
2023-04-14T08:35:37.236Z,99290.94
2023-04-14T08:38:06.726Z,99298.28
2023-04-14T08:40:38.132Z,99289.84
2023-04-14T08:43:05.995Z,99298.44
2023-04-14T08:45:34.685Z,99295.94
2023-04-14T08:48:04.391Z,99287.56
2023-04-14T08:50:37.900Z,99295.56
2023-04-14T08:53:09.406Z,99286.09
2023-04-14T08:55:40.268Z,99299.09
2023-04-14T08:58:10.380Z,99290.66
2023-04-14T09:00:38.891Z,99285.66
2023-04-14T09:03:06.945Z,99295.22
2023-04-14T09:05:36.548Z,99296.13
2023-04-14T09:08:05.003Z,99296.31
2023-04-14T09:10:32.934Z,99282.69
2023-04-14T09:13:01.427Z,99274.25
2023-04-14T09:15:29.412Z,99284.66
2023-04-14T09:17:57.222Z,99266.84
2023-04-14T09:20:34.487Z,99271.50
2023-04-14T09:23:11.046Z,99269.94
2023-04-14T09:25:39.487Z,99273.50
2023-04-14T09:28:07.340Z,99267.53
2023-04-14T09:30:35.138Z,99273.44
2023-04-14T09:33:05.871Z,99266.63
2023-04-14T09:35:44.705Z,99260.75
2023-04-14T09:38:13.622Z,99268.75
2023-04-14T09:40:43.580Z,99262.72
2023-04-14T09:43:24.863Z,99270.38
2023-04-14T09:45:52.995Z,99265.22
2023-04-14T09:48:21.184Z,99269.59
2023-04-14T09:50:59.813Z,99263.69
2023-04-14T09:53:29.959Z,99258.72
2023-04-14T09:55:59.631Z,99269.16
2023-04-14T09:58:31.470Z,99260.69
2023-04-14T10:01:00.296Z,99257.25
2023-04-14T10:03:36.423Z,99264.94
2023-04-14T10:06:07.482Z,99260.78
2023-04-14T10:08:38.097Z,99259.28
2023-04-14T10:11:16.486Z,99247.41
2023-04-14T10:13:44.333Z,99255.31
2023-04-14T10:16:11.995Z,99259.63
2023-04-14T10:18:39.574Z,99251.63
2023-04-14T10:21:08.475Z,99243.84
2023-04-14T10:23:39.626Z,99247.31
2023-04-14T10:26:08.720Z,99243.09
2023-04-14T10:28:38.405Z,99238.91
2023-04-14T10:31:09.200Z,99235.59
2023-04-14T10:33:37.912Z,99239.06
2023-04-14T10:36:06.014Z,99221.94
2023-04-14T10:38:43.445Z,99226.41
2023-04-14T10:41:12.128Z,99225.63
2023-04-14T10:43:40.001Z,99217.03
2023-04-14T10:46:09.731Z,99227.38
2023-04-14T10:48:40.133Z,99218.75
2023-04-14T10:51:09.572Z,99223.94
2023-04-14T10:53:38.962Z,99211.00
2023-04-14T10:56:07.875Z,99208.38
2023-04-14T10:58:37.566Z,99197.97
2023-04-14T11:01:26.388Z,99201.44
2023-04-14T11:03:55.811Z,99187.50
2023-04-14T11:06:52.059Z,99196.06
2023-04-14T11:09:27.356Z,99191.00
2023-04-14T11:11:58.036Z,99185.72
2023-04-14T11:14:29.147Z,99181.25
2023-04-14T11:17:03.823Z,99176.56
2023-04-14T11:19:33.108Z,99169.66
2023-04-14T11:22:00.651Z,99177.00
2023-04-14T11:24:29.867Z,99162.00
2023-04-14T11:27:00.098Z,99160.31
2023-04-14T11:29:27.741Z,99169.03
2023-04-14T11:32:03.107Z,99165.72
2023-04-14T11:34:30.913Z,99160.44
2023-04-14T11:36:58.557Z,99151.22
2023-04-14T11:39:26.213Z,99147.03
2023-04-14T11:41:53.929Z,99147.00
2023-04-14T11:44:23.267Z,99147.34
2023-04-14T11:46:51.095Z,99143.28
2023-04-14T11:49:20.560Z,99137.97
2023-04-14T11:51:49.371Z,99134.22
2023-04-14T11:54:17.027Z,99137.34
2023-04-14T11:56:44.705Z,99128.44
2023-04-14T11:59:12.352Z,99120.91
2023-04-14T12:01:41.406Z,99121.44
2023-04-14T12:04:10.612Z,99118.72
2023-04-14T12:06:39.029Z,99119.16
2023-04-14T12:09:09.893Z,99116.56
2023-04-14T12:11:37.455Z,99118.81
2023-04-14T12:14:05.649Z,99114.31
2023-04-14T12:16:33.595Z,99120.50
2023-04-14T12:19:03.311Z,99114.13
2023-04-14T12:21:31.312Z,99110.09
2023-04-14T12:23:58.953Z,99109.09
2023-04-14T12:26:26.829Z,99106.94
2023-04-14T12:28:58.104Z,99095.59
2023-04-14T12:31:30.356Z,99082.81
2023-04-14T12:34:03.887Z,99079.72
2023-04-14T12:36:48.047Z,99076.59
2023-04-14T12:39:17.528Z,99083.09
2023-04-14T12:41:45.515Z,99080.50
2023-04-14T12:44:16.067Z,99072.16
2023-04-14T12:46:48.587Z,99065.72
2023-04-14T12:49:36.037Z,99069.88
2023-04-14T12:52:04.634Z,99070.19
2023-04-14T12:54:48.802Z,99061.63
2023-04-14T12:57:16.438Z,99067.09
2023-04-14T12:59:43.972Z,99046.41
2023-04-14T13:02:12.772Z,99042.66
2023-04-14T13:04:41.780Z,99055.63
2023-04-14T13:07:09.347Z,99045.94
2023-04-14T13:09:36.878Z,99031.50
2023-04-14T13:12:04.543Z,99030.09
2023-04-14T13:14:32.089Z,99037.31
2023-04-14T13:16:59.737Z,99033.72
2023-04-14T13:19:27.310Z,99033.25
2023-04-14T13:21:56.225Z,99019.66
2023-04-14T13:24:24.007Z,99019.72
2023-04-14T13:26:51.860Z,99021.59
2023-04-14T13:29:19.423Z,99016.19
2023-04-14T13:31:47.025Z,99018.13
2023-04-14T13:34:14.617Z,99013.19
2023-04-14T13:36:42.234Z,99015.47
2023-04-14T13:39:11.131Z,99006.72
2023-04-14T13:41:38.822Z,99006.50
2023-04-14T13:44:06.518Z,99002.81
2023-04-14T13:46:40.794Z,98988.38
2023-04-14T13:49:09.197Z,98984.84
2023-04-14T13:51:36.757Z,98979.78
2023-04-14T13:54:04.468Z,98981.47
2023-04-14T13:56:33.956Z,98972.97
2023-04-14T13:59:01.898Z,98969.69
2023-04-14T14:01:29.825Z,98966.41
2023-04-14T14:03:57.693Z,98965.31
2023-04-14T14:06:26.354Z,98961.38
2023-04-14T14:09:11.586Z,98956.72
2023-04-14T14:11:43.977Z,98960.19
2023-04-14T14:14:12.758Z,98951.28
2023-04-14T14:16:40.506Z,98944.53
2023-04-14T14:19:09.941Z,98946.88
2023-04-14T14:21:38.782Z,98946.66
2023-04-14T14:24:07.896Z,98950.22
2023-04-14T14:26:36.418Z,98945.72
2023-04-14T14:29:07.401Z,98936.22
2023-04-14T14:31:37.015Z,98941.13
2023-04-14T14:34:06.205Z,98932.59
2023-04-14T14:36:34.047Z,98934.84
2023-04-14T14:39:01.761Z,98927.53
2023-04-14T14:41:29.445Z,98934.38
2023-04-14T14:43:58.080Z,98919.59
2023-04-14T14:46:28.176Z,98924.94
2023-04-14T14:48:57.758Z,98925.69
2023-04-14T14:51:25.680Z,98926.84
2023-04-14T14:53:59.205Z,98919.28
2023-04-14T14:56:34.013Z,98925.22
2023-04-14T14:59:02.287Z,98920.38
2023-04-14T15:01:31.649Z,98924.59
2023-04-14T15:03:59.662Z,98918.38
2023-04-14T15:06:27.680Z,98912.06
2023-04-14T15:08:55.587Z,98917.91
2023-04-14T15:11:23.191Z,98910.38
2023-04-14T15:13:50.782Z,98922.00
2023-04-14T15:16:18.348Z,98906.47
2023-04-14T15:18:47.274Z,98922.63
2023-04-14T15:21:14.893Z,98909.44
2023-04-14T15:23:43.968Z,98910.34
2023-04-14T15:26:11.596Z,98912.72
2023-04-14T15:28:39.352Z,98918.44
2023-04-14T15:31:06.982Z,98919.88
2023-04-14T15:33:34.587Z,98920.66
2023-04-14T15:36:03.860Z,98907.66
2023-04-14T15:38:31.478Z,98913.97
2023-04-14T15:41:00.587Z,98912.50
2023-04-14T15:43:28.897Z,98919.06
2023-04-14T15:45:56.539Z,98910.56
2023-04-14T15:48:24.251Z,98909.31
2023-04-14T15:50:51.867Z,98909.72
2023-04-14T15:53:20.967Z,98905.97
2023-04-14T15:55:50.010Z,98904.41
2023-04-14T15:58:17.865Z,98905.91
2023-04-14T16:00:45.478Z,98904.91
2023-04-14T16:03:13.623Z,98907.06
2023-04-14T16:05:41.491Z,98909.22
2023-04-14T16:08:09.261Z,98908.63
2023-04-14T16:10:41.384Z,98897.06
2023-04-14T16:13:09.426Z,98899.25
2023-04-14T16:15:37.209Z,98903.56
2023-04-14T16:18:04.957Z,98902.81
2023-04-14T16:20:32.589Z,98904.59
2023-04-14T16:23:00.684Z,98902.88
2023-04-14T16:25:28.833Z,98912.06
2023-04-14T16:27:57.807Z,98905.34
2023-04-14T16:30:25.398Z,98903.66
2023-04-14T16:32:53.119Z,98903.34
2023-04-14T16:35:20.714Z,98905.69
2023-04-14T16:37:48.395Z,98910.56
2023-04-14T16:40:16.144Z,98905.63
2023-04-14T16:42:43.749Z,98914.03
2023-04-14T16:45:13.008Z,98908.09
2023-04-14T16:47:40.694Z,98907.47
2023-04-14T16:50:09.002Z,98916.03
2023-04-14T16:52:36.567Z,98911.06
2023-04-14T16:55:04.950Z,98906.22
2023-04-14T16:57:32.533Z,98904.69
2023-04-14T17:00:00.488Z,98894.41
2023-04-14T17:02:29.665Z,98896.25
2023-04-14T17:04:58.302Z,98895.78
2023-04-14T17:07:26.049Z,98900.19
2023-04-14T17:09:54.207Z,98896.53
2023-04-14T17:12:22.281Z,98893.19
2023-04-14T17:14:50.036Z,98896.75
2023-04-14T17:17:17.672Z,98900.88
2023-04-14T17:19:46.669Z,98901.25
2023-04-14T17:22:15.102Z,98899.16
2023-04-14T17:24:42.762Z,98899.31
2023-04-14T17:27:10.283Z,98897.41
2023-04-14T17:29:37.863Z,98905.19
2023-04-14T17:32:05.916Z,98906.44
2023-04-14T17:34:33.588Z,98904.72
2023-04-14T17:37:04.432Z,98897.22
2023-04-14T17:39:32.181Z,98890.44
2023-04-14T17:42:00.470Z,98892.38
2023-04-14T17:44:32.820Z,98898.72
2023-04-14T17:47:02.844Z,98889.28
2023-04-14T17:49:33.423Z,98898.03
2023-04-14T17:52:17.011Z,98890.69
2023-04-14T17:54:45.300Z,98892.97
2023-04-14T17:57:13.585Z,98889.81
2023-04-14T17:59:41.704Z,98889.94
2023-04-14T18:02:09.841Z,98892.97
2023-04-14T18:04:37.499Z,98894.13
2023-04-14T18:07:05.176Z,98896.81
2023-04-14T18:09:34.766Z,98902.28
2023-04-14T18:12:02.438Z,98905.00
2023-04-14T18:14:30.934Z,98907.22
2023-04-14T18:16:58.641Z,98905.03
2023-04-14T18:19:26.277Z,98902.81
2023-04-14T18:21:55.733Z,98908.50
2023-04-14T18:26:56.973Z,98910.97
2023-04-14T18:29:24.608Z,98921.66
2023-04-14T18:31:52.269Z,98918.34
2023-04-14T18:34:19.944Z,98917.56
2023-04-14T18:36:47.578Z,98916.06
2023-04-14T18:39:16.208Z,98916.19
2023-04-14T18:41:43.991Z,98926.63
2023-04-14T18:44:13.178Z,98924.97
2023-04-14T18:46:40.866Z,98934.47
2023-04-14T18:49:08.487Z,98932.75
2023-04-14T18:51:36.166Z,98935.31
2023-04-14T18:54:03.915Z,98935.31
2023-04-14T18:56:31.660Z,98933.59
2023-04-14T18:58:59.747Z,98929.25
2023-04-14T19:01:29.044Z,98936.09
2023-04-14T19:03:57.622Z,98931.72
2023-04-14T19:06:26.210Z,98941.06
2023-04-14T19:08:53.934Z,98942.66
2023-04-14T19:11:21.569Z,98948.56
2023-04-14T19:13:49.172Z,98945.88
2023-04-14T19:16:17.287Z,98946.66
2023-04-14T19:18:46.227Z,98944.88
2023-04-14T19:21:14.030Z,98956.75
2023-04-14T19:23:42.242Z,98955.84
2023-04-14T19:26:11.388Z,98962.63
2023-04-14T19:28:39.836Z,98960.75
2023-04-14T19:31:07.562Z,98962.34
2023-04-14T19:33:35.469Z,98957.19
2023-04-14T19:36:11.643Z,98969.19
2023-04-14T19:38:39.442Z,98962.16
2023-04-14T19:41:07.781Z,98968.97
2023-04-14T19:43:35.336Z,98970.50
2023-04-14T19:46:04.817Z,98973.06
2023-04-14T19:48:33.867Z,98973.78
2023-04-14T19:51:03.902Z,98970.25
2023-04-14T19:53:32.952Z,98965.91
2023-04-14T19:56:01.853Z,98964.09
2023-04-14T19:58:30.594Z,98963.16
2023-04-14T20:00:58.700Z,98967.25
2023-04-14T20:03:28.110Z,98968.88
2023-04-14T20:05:57.394Z,98968.75
2023-04-14T20:08:26.276Z,98968.75
2023-04-14T20:10:55.357Z,98967.78
2023-04-14T20:13:24.474Z,98969.31
2023-04-14T20:15:54.853Z,98966.56
2023-04-14T20:18:23.216Z,98963.03
2023-04-14T20:20:51.130Z,98968.09
2023-04-14T20:23:21.132Z,98960.34
2023-04-14T20:25:49.082Z,98960.25
2023-04-14T20:28:19.416Z,98966.97
2023-04-14T20:30:49.384Z,98959.22
2023-04-14T20:33:18.267Z,98963.41
2023-04-14T20:35:46.276Z,98968.44
2023-04-14T20:38:15.338Z,98966.69
2023-04-14T20:40:43.402Z,98976.97
2023-04-14T20:43:10.925Z,98972.56
2023-04-14T20:45:39.951Z,98981.81
2023-04-14T20:48:09.078Z,98977.34
2023-04-14T20:50:37.241Z,98973.06
2023-04-14T20:53:05.040Z,98978.00
2023-04-14T20:55:32.632Z,98971.91
2023-04-14T20:58:01.828Z,98974.34
2023-04-14T21:00:30.649Z,98980.16
2023-04-14T21:03:01.119Z,98979.19
2023-04-14T21:05:28.786Z,98972.44
2023-04-14T21:07:56.427Z,98971.50
2023-04-14T21:10:24.179Z,98970.56
2023-04-14T21:15:29.030Z,98972.13
2023-04-14T21:15:54.411Z,98972.91
2023-04-14T21:18:26.498Z,98972.81
2023-04-14T21:20:54.127Z,98976.19
2023-04-14T21:23:21.908Z,98981.91
2023-04-14T21:25:49.668Z,98983.44
2023-04-14T21:28:18.089Z,98988.41
2023-04-14T21:30:45.679Z,98985.72
2023-04-14T21:33:13.662Z,98980.41
2023-04-14T21:35:43.285Z,98986.94
2023-04-14T21:38:11.183Z,98983.34
2023-04-14T21:40:38.774Z,98988.22
2023-04-14T21:43:06.366Z,98987.31
2023-04-14T21:45:34.018Z,98988.88
2023-04-14T21:48:02.955Z,98985.34
2023-04-14T21:50:33.017Z,98986.13
2023-04-14T21:53:02.451Z,98991.19
2023-04-14T21:55:30.033Z,98996.97
2023-04-14T21:57:57.643Z,98990.09
2023-04-14T22:00:26.602Z,98991.72
2023-04-14T22:02:54.351Z,98987.47
2023-04-14T22:05:22.058Z,98984.88
2023-04-14T22:07:49.752Z,98986.44
2023-04-14T22:10:18.754Z,98993.22
2023-04-14T22:12:46.822Z,98986.97
2023-04-14T22:15:14.566Z,98984.34
2023-04-14T22:17:42.377Z,98982.53
2023-04-14T22:20:12.284Z,98989.19
2023-04-14T22:22:39.880Z,98999.16
2023-04-14T22:25:09.605Z,98999.94
2023-04-14T22:27:38.578Z,98992.91
2023-04-14T22:30:07.184Z,98997.13
2023-04-14T22:32:34.853Z,98992.91
2023-04-14T22:35:03.592Z,98993.38
2023-04-14T22:37:31.170Z,98997.53
2023-04-14T22:39:59.866Z,98997.38
2023-04-14T22:42:27.735Z,99004.78
2023-04-14T22:44:56.655Z,98998.75
2023-04-14T22:47:24.263Z,99002.00
2023-04-14T22:49:51.964Z,99007.00
2023-04-14T22:52:19.704Z,99001.75
2023-04-14T22:54:48.556Z,99002.41
2023-04-14T22:57:16.086Z,99002.44
2023-04-14T22:59:43.700Z,99001.56
2023-04-14T23:02:12.973Z,98996.34
2023-04-14T23:04:40.744Z,99007.38
2023-04-14T23:07:08.392Z,99008.91
2023-04-14T23:09:36.066Z,99001.97
2023-04-14T23:12:05.446Z,99015.47
2023-04-14T23:14:33.247Z,99011.09
2023-04-14T23:17:01.094Z,99010.16
2023-04-14T23:19:32.929Z,99014.25
2023-04-14T23:22:00.541Z,99010.00
2023-04-14T23:24:28.108Z,99015.00
2023-04-14T23:26:56.003Z,99008.91
2023-04-14T23:29:23.636Z,99006.34
2023-04-14T23:31:51.787Z,99016.44
2023-04-14T23:34:19.696Z,99019.81
2023-04-14T23:36:49.406Z,99018.88
2023-04-14T23:39:17.458Z,99018.84
2023-04-14T23:41:45.015Z,99019.72
2023-04-14T23:44:12.536Z,99007.75
2023-04-14T23:46:40.684Z,99001.69
2023-04-14T23:49:24.685Z,99007.59
2023-04-14T23:51:57.476Z,98998.06
2023-04-14T23:54:25.962Z,98994.53
2023-04-14T23:56:53.540Z,98995.25
2023-04-14T23:59:21.799Z,98989.06
